sensor_id;sensor_type;location;lat;lon;timestamp;temperature;humidity
11505;DHT22;5809;53.262;10.408;2022-10-16T00:01:27;13.50;99.90
11505;DHT22;5809;53.262;10.408;2022-10-16T00:06:22;13.40;99.90
11505;DHT22;5809;53.262;10.408;2022-10-16T00:11:18;13.40;99.90
11505;DHT22;5809;53.262;10.408;2022-10-16T00:13:49;13.30;99.90
11505;DHT22;5809;53.262;10.408;2022-10-16T00:16:17;13.30;99.90
11505;DHT22;5809;53.262;10.408;2022-10-16T00:18:45;13.30;99.90
11505;DHT22;5809;53.262;10.408;2022-10-16T00:21:15;13.30;99.90
11505;DHT22;5809;53.262;10.408;2022-10-16T00:26:15;13.30;99.90
11505;DHT22;5809;53.262;10.408;2022-10-16T00:28:45;12.60;99.90
11505;DHT22;5809;53.262;10.408;2022-10-16T00:31:12;13.30;99.90
11505;DHT22;5809;53.262;10.408;2022-10-16T00:33:40;13.20;99.90
11505;DHT22;5809;53.262;10.408;2022-10-16T00:36:11;13.20;99.90
11505;DHT22;5809;53.262;10.408;2022-10-16T00:41:05;13.10;99.90
11505;DHT22;5809;53.262;10.408;2022-10-16T00:43:36;13.10;99.90
11505;DHT22;5809;53.262;10.408;2022-10-16T00:46:07;13.10;99.90
11505;DHT22;5809;53.262;10.408;2022-10-16T00:48:36;13.00;99.90
11505;DHT22;5809;53.262;10.408;2022-10-16T00:51:04;13.00;99.90
11505;DHT22;5809;53.262;10.408;2022-10-16T00:53:34;13.00;99.90
11505;DHT22;5809;53.262;10.408;2022-10-16T00:56:01;13.00;99.90
11505;DHT22;5809;53.262;10.408;2022-10-16T00:58:28;13.00;99.90
11505;DHT22;5809;53.262;10.408;2022-10-16T01:03:25;12.90;99.90
11505;DHT22;5809;53.262;10.408;2022-10-16T01:06:05;12.90;99.90
11505;DHT22;5809;53.262;10.408;2022-10-16T01:08:44;12.90;99.90
11505;DHT22;5809;53.262;10.408;2022-10-16T01:11:19;12.80;99.90
11505;DHT22;5809;53.262;10.408;2022-10-16T01:13:50;12.80;99.90
11505;DHT22;5809;53.262;10.408;2022-10-16T01:16:25;12.80;99.90
11505;DHT22;5809;53.262;10.408;2022-10-16T01:18:59;12.70;99.90
11505;DHT22;5809;53.262;10.408;2022-10-16T01:21:32;12.80;99.90
11505;DHT22;5809;53.262;10.408;2022-10-16T01:24:06;13.90;99.90
11505;DHT22;5809;53.262;10.408;2022-10-16T01:29:32;12.70;99.90
11505;DHT22;5809;53.262;10.408;2022-10-16T01:34:37;12.70;99.90
11505;DHT22;5809;53.262;10.408;2022-10-16T01:37:07;12.70;99.90
11505;DHT22;5809;53.262;10.408;2022-10-16T01:39:39;12.70;99.90
11505;DHT22;5809;53.262;10.408;2022-10-16T01:42:11;12.70;99.90
11505;DHT22;5809;53.262;10.408;2022-10-16T01:44:41;12.60;99.90
11505;DHT22;5809;53.262;10.408;2022-10-16T01:47:09;12.60;99.90
11505;DHT22;5809;53.262;10.408;2022-10-16T01:49:39;12.60;99.90
11505;DHT22;5809;53.262;10.408;2022-10-16T01:54:39;12.50;99.90
11505;DHT22;5809;53.262;10.408;2022-10-16T01:57:07;12.50;99.90
11505;DHT22;5809;53.262;10.408;2022-10-16T01:59:40;12.50;99.90
11505;DHT22;5809;53.262;10.408;2022-10-16T02:02:10;12.50;99.90
11505;DHT22;5809;53.262;10.408;2022-10-16T02:04:40;12.40;99.90
11505;DHT22;5809;53.262;10.408;2022-10-16T02:07:09;12.40;99.90
11505;DHT22;5809;53.262;10.408;2022-10-16T02:09:36;12.40;99.90
11505;DHT22;5809;53.262;10.408;2022-10-16T02:12:08;12.40;99.90
11505;DHT22;5809;53.262;10.408;2022-10-16T02:14:38;12.40;99.90
11505;DHT22;5809;53.262;10.408;2022-10-16T02:19:39;12.40;99.90
11505;DHT22;5809;53.262;10.408;2022-10-16T02:27:10;12.50;99.90
11505;DHT22;5809;53.262;10.408;2022-10-16T02:29:40;12.50;99.90
11505;DHT22;5809;53.262;10.408;2022-10-16T02:32:12;12.60;99.90
11505;DHT22;5809;53.262;10.408;2022-10-16T02:34:42;12.60;99.90
11505;DHT22;5809;53.262;10.408;2022-10-16T02:49:32;12.60;99.90
11505;DHT22;5809;53.262;10.408;2022-10-16T02:54:26;12.60;99.90
11505;DHT22;5809;53.262;10.408;2022-10-16T03:04:14;12.60;99.90
11505;DHT22;5809;53.262;10.408;2022-10-16T03:06:43;12.60;99.90
11505;DHT22;5809;53.262;10.408;2022-10-16T03:14:04;12.50;99.90
11505;DHT22;5809;53.262;10.408;2022-10-16T03:23:54;12.50;99.90
11505;DHT22;5809;53.262;10.408;2022-10-16T03:38:36;12.40;99.90
11505;DHT22;5809;53.262;10.408;2022-10-16T03:58:17;12.30;99.90
11505;DHT22;5809;53.262;10.408;2022-10-16T04:08:07;12.30;99.90
11505;DHT22;5809;53.262;10.408;2022-10-16T04:25:19;12.20;99.90
11505;DHT22;5809;53.262;10.408;2022-10-16T04:30:13;12.10;99.90
11505;DHT22;5809;53.262;10.408;2022-10-16T04:42:32;12.20;99.90
11505;DHT22;5809;53.262;10.408;2022-10-16T04:47:26;12.20;99.90
11505;DHT22;5809;53.262;10.408;2022-10-16T04:49:54;12.30;99.90
11505;DHT22;5809;53.262;10.408;2022-10-16T04:52:22;12.30;99.90
11505;DHT22;5809;53.262;10.408;2022-10-16T04:59:44;12.30;99.90
11505;DHT22;5809;53.262;10.408;2022-10-16T05:14:29;12.30;99.90
11505;DHT22;5809;53.262;10.408;2022-10-16T05:24:19;12.30;99.90
11505;DHT22;5809;53.262;10.408;2022-10-16T05:29:13;12.30;99.90
11505;DHT22;5809;53.262;10.408;2022-10-16T05:51:20;12.30;99.90
11505;DHT22;5809;53.262;10.408;2022-10-16T06:08:37;12.20;99.90
11505;DHT22;5809;53.262;10.408;2022-10-16T06:11:05;12.30;99.90
11505;DHT22;5809;53.262;10.408;2022-10-16T06:18:29;11.00;99.90
11505;DHT22;5809;53.262;10.408;2022-10-16T06:25:51;12.30;99.90
11505;DHT22;5809;53.262;10.408;2022-10-16T06:30:45;12.30;99.90
11505;DHT22;5809;53.262;10.408;2022-10-16T06:33:13;12.20;99.90
11505;DHT22;5809;53.262;10.408;2022-10-16T06:43:02;12.40;99.90
11505;DHT22;5809;53.262;10.408;2022-10-16T06:47:56;12.40;99.90
11505;DHT22;5809;53.262;10.408;2022-10-16T06:50:24;12.40;99.90
11505;DHT22;5809;53.262;10.408;2022-10-16T07:00:14;12.50;99.90
11505;DHT22;5809;53.262;10.408;2022-10-16T07:05:08;12.50;99.90
11505;DHT22;5809;53.262;10.408;2022-10-16T07:07:37;12.50;99.90
11505;DHT22;5809;53.262;10.408;2022-10-16T07:34:38;14.80;99.90
11505;DHT22;5809;53.262;10.408;2022-10-16T07:39:33;14.80;99.90
11505;DHT22;5809;53.262;10.408;2022-10-16T07:42:01;15.30;99.90
11505;DHT22;5809;53.262;10.408;2022-10-16T07:44:28;15.30;99.90
11505;DHT22;5809;53.262;10.408;2022-10-16T07:51:50;16.40;99.90
11505;DHT22;5809;53.262;10.408;2022-10-16T07:56:44;17.30;99.90
11505;DHT22;5809;53.262;10.408;2022-10-16T08:01:39;18.10;99.90
11505;DHT22;5809;53.262;10.408;2022-10-16T08:04:08;18.60;99.90
11505;DHT22;5809;53.262;10.408;2022-10-16T08:16:26;19.40;99.90
11505;DHT22;5809;53.262;10.408;2022-10-16T08:33:42;17.40;99.90
11505;DHT22;5809;53.262;10.408;2022-10-16T08:36:09;18.20;99.90
11505;DHT22;5809;53.262;10.408;2022-10-16T08:38:37;18.30;99.90
11505;DHT22;5809;53.262;10.408;2022-10-16T08:41:20;18.80;99.90
11505;DHT22;5809;53.262;10.408;2022-10-16T08:44:04;18.50;99.90
11505;DHT22;5809;53.262;10.408;2022-10-16T08:46:42;18.90;99.90
11505;DHT22;5809;53.262;10.408;2022-10-16T08:49:14;19.30;99.90
11505;DHT22;5809;53.262;10.408;2022-10-16T08:51:41;19.30;99.90
11505;DHT22;5809;53.262;10.408;2022-10-16T08:54:21;18.30;99.90
11505;DHT22;5809;53.262;10.408;2022-10-16T08:56:49;18.40;99.90
11505;DHT22;5809;53.262;10.408;2022-10-16T08:59:17;17.90;99.90
11505;DHT22;5809;53.262;10.408;2022-10-16T09:01:46;18.30;99.90
11505;DHT22;5809;53.262;10.408;2022-10-16T09:04:29;19.00;99.90
11505;DHT22;5809;53.262;10.408;2022-10-16T09:07:04;19.10;99.90
11505;DHT22;5809;53.262;10.408;2022-10-16T09:09:54;19.50;99.90
11505;DHT22;5809;53.262;10.408;2022-10-16T09:12:31;19.90;99.90
11505;DHT22;5809;53.262;10.408;2022-10-16T09:15:12;20.00;99.90
11505;DHT22;5809;53.262;10.408;2022-10-16T09:17:48;20.10;99.90
11505;DHT22;5809;53.262;10.408;2022-10-16T09:20:28;21.10;99.90
11505;DHT22;5809;53.262;10.408;2022-10-16T09:23:18;21.20;99.90
11505;DHT22;5809;53.262;10.408;2022-10-16T09:25:47;21.60;99.90
11505;DHT22;5809;53.262;10.408;2022-10-16T09:28:16;21.00;99.90
11505;DHT22;5809;53.262;10.408;2022-10-16T09:30:43;21.00;99.90
11505;DHT22;5809;53.262;10.408;2022-10-16T09:33:12;21.00;99.90
11505;DHT22;5809;53.262;10.408;2022-10-16T09:35:43;21.00;99.90
11505;DHT22;5809;53.262;10.408;2022-10-16T09:38:21;21.10;99.90
11505;DHT22;5809;53.262;10.408;2022-10-16T09:40:49;21.60;99.90
11505;DHT22;5809;53.262;10.408;2022-10-16T09:43:22;21.30;99.90
11505;DHT22;5809;53.262;10.408;2022-10-16T09:45:55;21.70;99.90
11505;DHT22;5809;53.262;10.408;2022-10-16T09:48:22;22.30;99.90
11505;DHT22;5809;53.262;10.408;2022-10-16T09:50:59;21.30;99.90
11505;DHT22;5809;53.262;10.408;2022-10-16T09:53:39;21.30;99.90
11505;DHT22;5809;53.262;10.408;2022-10-16T09:58:34;20.50;99.90
11505;DHT22;5809;53.262;10.408;2022-10-16T10:01:02;20.50;99.90
11505;DHT22;5809;53.262;10.408;2022-10-16T10:03:38;19.90;99.90
11505;DHT22;5809;53.262;10.408;2022-10-16T10:06:21;19.30;99.90
11505;DHT22;5809;53.262;10.408;2022-10-16T10:09:02;18.80;99.90
11505;DHT22;5809;53.262;10.408;2022-10-16T10:11:50;18.50;99.90
11505;DHT22;5809;53.262;10.408;2022-10-16T10:14:22;18.40;99.90
11505;DHT22;5809;53.262;10.408;2022-10-16T10:16:51;18.40;99.90
11505;DHT22;5809;53.262;10.408;2022-10-16T10:19:20;18.50;99.90
11505;DHT22;5809;53.262;10.408;2022-10-16T10:21:50;18.40;99.90
11505;DHT22;5809;53.262;10.408;2022-10-16T10:24:18;18.60;99.90
11505;DHT22;5809;53.262;10.408;2022-10-16T10:26:51;18.80;99.90
11505;DHT22;5809;53.262;10.408;2022-10-16T10:29:29;19.00;99.90
11505;DHT22;5809;53.262;10.408;2022-10-16T10:32:04;19.40;99.90
11505;DHT22;5809;53.262;10.408;2022-10-16T10:34:50;19.60;99.90
11505;DHT22;5809;53.262;10.408;2022-10-16T10:37:32;20.30;99.90
11505;DHT22;5809;53.262;10.408;2022-10-16T10:40:08;20.40;99.90
11505;DHT22;5809;53.262;10.408;2022-10-16T10:42:40;21.20;99.90
11505;DHT22;5809;53.262;10.408;2022-10-16T10:45:28;21.90;99.90
11505;DHT22;5809;53.262;10.408;2022-10-16T10:48:19;21.50;99.90
11505;DHT22;5809;53.262;10.408;2022-10-16T10:50:50;21.80;99.90
11505;DHT22;5809;53.262;10.408;2022-10-16T10:53:33;21.90;99.90
11505;DHT22;5809;53.262;10.408;2022-10-16T10:56:14;22.50;99.90
11505;DHT22;5809;53.262;10.408;2022-10-16T10:58:53;23.00;99.90
11505;DHT22;5809;53.262;10.408;2022-10-16T11:01:28;22.90;99.90
11505;DHT22;5809;53.262;10.408;2022-10-16T11:04:36;23.30;98.20
11505;DHT22;5809;53.262;10.408;2022-10-16T11:07:13;23.00;99.50
11505;DHT22;5809;53.262;10.408;2022-10-16T11:09:45;23.10;98.70
11505;DHT22;5809;53.262;10.408;2022-10-16T11:12:17;23.70;98.10
11505;DHT22;5809;53.262;10.408;2022-10-16T11:14:48;22.10;99.90
11505;DHT22;5809;53.262;10.408;2022-10-16T11:17:19;20.90;99.90
11505;DHT22;5809;53.262;10.408;2022-10-16T11:19:53;21.00;99.90
11505;DHT22;5809;53.262;10.408;2022-10-16T11:22:25;20.40;99.90
11505;DHT22;5809;53.262;10.408;2022-10-16T11:24:58;20.10;99.90
11505;DHT22;5809;53.262;10.408;2022-10-16T11:27:35;20.70;99.90
11505;DHT22;5809;53.262;10.408;2022-10-16T11:30:06;20.80;99.90
11505;DHT22;5809;53.262;10.408;2022-10-16T11:32:47;22.10;99.90
11505;DHT22;5809;53.262;10.408;2022-10-16T11:35:21;23.10;99.90
11505;DHT22;5809;53.262;10.408;2022-10-16T11:37:52;24.00;98.00
11505;DHT22;5809;53.262;10.408;2022-10-16T11:40:25;23.40;97.70
11505;DHT22;5809;53.262;10.408;2022-10-16T11:42:57;23.10;98.80
11505;DHT22;5809;53.262;10.408;2022-10-16T11:45:33;23.60;98.20
11505;DHT22;5809;53.262;10.408;2022-10-16T11:48:08;23.60;97.50
11505;DHT22;5809;53.262;10.408;2022-10-16T11:50:45;23.50;98.50
11505;DHT22;5809;53.262;10.408;2022-10-16T11:53:18;23.50;97.90
11505;DHT22;5809;53.262;10.408;2022-10-16T11:55:50;23.90;98.50
11505;DHT22;5809;53.262;10.408;2022-10-16T11:58:24;23.50;97.90
11505;DHT22;5809;53.262;10.408;2022-10-16T12:00:58;22.20;99.90
11505;DHT22;5809;53.262;10.408;2022-10-16T12:03:31;22.00;99.90
11505;DHT22;5809;53.262;10.408;2022-10-16T12:06:13;20.50;99.90
11505;DHT22;5809;53.262;10.408;2022-10-16T12:08:44;20.50;99.90
11505;DHT22;5809;53.262;10.408;2022-10-16T12:11:24;21.40;99.90
11505;DHT22;5809;53.262;10.408;2022-10-16T12:14:16;23.10;99.90
11505;DHT22;5809;53.262;10.408;2022-10-16T12:16:52;23.70;98.00
11505;DHT22;5809;53.262;10.408;2022-10-16T12:19:19;23.30;98.70
11505;DHT22;5809;53.262;10.408;2022-10-16T12:21:55;23.50;98.20
11505;DHT22;5809;53.262;10.408;2022-10-16T12:24:36;24.00;97.80
11505;DHT22;5809;53.262;10.408;2022-10-16T12:27:06;24.90;95.60
11505;DHT22;5809;53.262;10.408;2022-10-16T12:29:47;23.80;95.20
11505;DHT22;5809;53.262;10.408;2022-10-16T12:32:28;23.90;96.50
11505;DHT22;5809;53.262;10.408;2022-10-16T12:34:56;23.40;99.10
11505;DHT22;5809;53.262;10.408;2022-10-16T12:37:25;24.20;97.70
11505;DHT22;5809;53.262;10.408;2022-10-16T12:39:53;24.70;97.00
11505;DHT22;5809;53.262;10.408;2022-10-16T12:42:32;23.70;98.00
11505;DHT22;5809;53.262;10.408;2022-10-16T12:45:00;22.70;98.80
11505;DHT22;5809;53.262;10.408;2022-10-16T12:47:37;22.10;99.90
11505;DHT22;5809;53.262;10.408;2022-10-16T12:50:24;22.70;99.90
11505;DHT22;5809;53.262;10.408;2022-10-16T12:52:51;24.90;98.00
11505;DHT22;5809;53.262;10.408;2022-10-16T12:55:19;24.70;96.20
11505;DHT22;5809;53.262;10.408;2022-10-16T13:00:44;24.50;93.80
11505;DHT22;5809;53.262;10.408;2022-10-16T13:03:55;24.30;95.70
11505;DHT22;5809;53.262;10.408;2022-10-16T13:06:33;25.30;94.40
11505;DHT22;5809;53.262;10.408;2022-10-16T13:09:21;24.90;93.20
11505;DHT22;5809;53.262;10.408;2022-10-16T13:12:04;23.30;97.00
11505;DHT22;5809;53.262;10.408;2022-10-16T13:15:02;22.50;99.80
11505;DHT22;5809;53.262;10.408;2022-10-16T13:17:42;23.30;98.20
11505;DHT22;5809;53.262;10.408;2022-10-16T13:20:17;23.90;96.70
11505;DHT22;5809;53.262;10.408;2022-10-16T13:22:54;24.20;95.30
11505;DHT22;5809;53.262;10.408;2022-10-16T13:25:28;23.90;94.40
11505;DHT22;5809;53.262;10.408;2022-10-16T13:28:01;23.10;96.60
11505;DHT22;5809;53.262;10.408;2022-10-16T13:30:31;20.60;99.90
11505;DHT22;5809;53.262;10.408;2022-10-16T13:33:02;20.50;99.90
11505;DHT22;5809;53.262;10.408;2022-10-16T13:35:34;20.80;99.90
11505;DHT22;5809;53.262;10.408;2022-10-16T13:38:20;20.80;99.90
11505;DHT22;5809;53.262;10.408;2022-10-16T13:40:53;20.80;99.90
11505;DHT22;5809;53.262;10.408;2022-10-16T13:43:24;21.20;99.90
11505;DHT22;5809;53.262;10.408;2022-10-16T13:45:58;21.40;99.20
11505;DHT22;5809;53.262;10.408;2022-10-16T13:48:27;21.30;99.40
11505;DHT22;5809;53.262;10.408;2022-10-16T13:51:03;20.70;99.90
11505;DHT22;5809;53.262;10.408;2022-10-16T13:53:31;21.30;99.20
11505;DHT22;5809;53.262;10.408;2022-10-16T13:55:59;21.30;99.50
11505;DHT22;5809;53.262;10.408;2022-10-16T13:58:26;21.30;99.60
11505;DHT22;5809;53.262;10.408;2022-10-16T14:00:57;21.20;99.90
11505;DHT22;5809;53.262;10.408;2022-10-16T14:03:26;20.90;99.90
11505;DHT22;5809;53.262;10.408;2022-10-16T14:05:55;20.20;99.90
11505;DHT22;5809;53.262;10.408;2022-10-16T14:08:25;20.20;99.90
11505;DHT22;5809;53.262;10.408;2022-10-16T14:10:55;20.90;99.90
11505;DHT22;5809;53.262;10.408;2022-10-16T14:13:28;22.10;99.60
11505;DHT22;5809;53.262;10.408;2022-10-16T14:15:57;23.10;97.00
11505;DHT22;5809;53.262;10.408;2022-10-16T14:18:27;23.50;94.60
11505;DHT22;5809;53.262;10.408;2022-10-16T14:20:55;23.90;93.90
11505;DHT22;5809;53.262;10.408;2022-10-16T14:23:30;24.20;92.70
11505;DHT22;5809;53.262;10.408;2022-10-16T14:26:06;24.40;91.70
11505;DHT22;5809;53.262;10.408;2022-10-16T14:28:40;23.80;93.10
11505;DHT22;5809;53.262;10.408;2022-10-16T14:31:26;23.10;94.40
11505;DHT22;5809;53.262;10.408;2022-10-16T14:33:54;22.10;97.40
11505;DHT22;5809;53.262;10.408;2022-10-16T14:36:22;21.60;98.20
11505;DHT22;5809;53.262;10.408;2022-10-16T14:38:56;21.00;99.90
11505;DHT22;5809;53.262;10.408;2022-10-16T14:41:23;20.50;99.90
11505;DHT22;5809;53.262;10.408;2022-10-16T14:43:52;20.50;99.90
11505;DHT22;5809;53.262;10.408;2022-10-16T14:46:23;20.90;99.90
11505;DHT22;5809;53.262;10.408;2022-10-16T14:49:00;22.00;99.90
11505;DHT22;5809;53.262;10.408;2022-10-16T14:51:27;22.00;99.20
11505;DHT22;5809;53.262;10.408;2022-10-16T14:53:54;22.40;97.10
11505;DHT22;5809;53.262;10.408;2022-10-16T14:56:22;22.90;95.90
11505;DHT22;5809;53.262;10.408;2022-10-16T14:58:51;22.90;96.20
11505;DHT22;5809;53.262;10.408;2022-10-16T15:01:18;23.10;95.70
11505;DHT22;5809;53.262;10.408;2022-10-16T15:03:46;23.20;96.50
11505;DHT22;5809;53.262;10.408;2022-10-16T15:06:15;23.90;95.00
11505;DHT22;5809;53.262;10.408;2022-10-16T15:08:42;22.80;93.20
11505;DHT22;5809;53.262;10.408;2022-10-16T15:11:11;22.00;94.00
11505;DHT22;5809;53.262;10.408;2022-10-16T15:13:39;22.00;95.10
11505;DHT22;5809;53.262;10.408;2022-10-16T15:16:08;21.80;95.20
11505;DHT22;5809;53.262;10.408;2022-10-16T15:18:36;21.80;95.80
11505;DHT22;5809;53.262;10.408;2022-10-16T15:21:05;21.40;96.50
11505;DHT22;5809;53.262;10.408;2022-10-16T15:23:32;21.40;96.50
11505;DHT22;5809;53.262;10.408;2022-10-16T15:25:59;20.60;96.70
11505;DHT22;5809;53.262;10.408;2022-10-16T15:28:26;21.40;97.30
11505;DHT22;5809;53.262;10.408;2022-10-16T15:30:54;21.20;97.60
11505;DHT22;5809;53.262;10.408;2022-10-16T15:33:23;19.70;99.90
11505;DHT22;5809;53.262;10.408;2022-10-16T15:35:53;18.90;99.90
11505;DHT22;5809;53.262;10.408;2022-10-16T15:38:22;18.40;99.90
11505;DHT22;5809;53.262;10.408;2022-10-16T15:40:49;18.10;99.90
11505;DHT22;5809;53.262;10.408;2022-10-16T15:43:17;17.90;99.90
11505;DHT22;5809;53.262;10.408;2022-10-16T15:45:44;17.70;99.90
11505;DHT22;5809;53.262;10.408;2022-10-16T15:48:12;17.60;99.90
11505;DHT22;5809;53.262;10.408;2022-10-16T15:50:39;17.50;99.90
11505;DHT22;5809;53.262;10.408;2022-10-16T15:53:07;17.40;99.90
11505;DHT22;5809;53.262;10.408;2022-10-16T15:55:36;17.30;99.90
11505;DHT22;5809;53.262;10.408;2022-10-16T15:58:04;17.20;99.90
11505;DHT22;5809;53.262;10.408;2022-10-16T16:00:31;17.10;99.90
11505;DHT22;5809;53.262;10.408;2022-10-16T16:02:58;17.00;99.90
11505;DHT22;5809;53.262;10.408;2022-10-16T16:05:25;16.90;99.90
11505;DHT22;5809;53.262;10.408;2022-10-16T16:07:53;16.80;99.90
11505;DHT22;5809;53.262;10.408;2022-10-16T16:10:20;16.80;99.90
11505;DHT22;5809;53.262;10.408;2022-10-16T16:12:49;16.70;99.90
11505;DHT22;5809;53.262;10.408;2022-10-16T16:15:19;16.60;99.90
11505;DHT22;5809;53.262;10.408;2022-10-16T16:17:46;16.10;99.90
11505;DHT22;5809;53.262;10.408;2022-10-16T16:20:13;16.40;99.90
11505;DHT22;5809;53.262;10.408;2022-10-16T16:25:08;16.30;99.90
11505;DHT22;5809;53.262;10.408;2022-10-16T16:27:35;16.20;99.90
11505;DHT22;5809;53.262;10.408;2022-10-16T16:30:06;16.10;99.90
11505;DHT22;5809;53.262;10.408;2022-10-16T16:32:34;16.00;99.90
11505;DHT22;5809;53.262;10.408;2022-10-16T16:35:01;16.00;99.90
11505;DHT22;5809;53.262;10.408;2022-10-16T16:37:28;15.90;99.90
11505;DHT22;5809;53.262;10.408;2022-10-16T16:42:24;15.90;99.90
11505;DHT22;5809;53.262;10.408;2022-10-16T16:44:51;15.80;99.90
11505;DHT22;5809;53.262;10.408;2022-10-16T16:47:19;15.70;99.90
11505;DHT22;5809;53.262;10.408;2022-10-16T16:49:46;15.70;99.90
11505;DHT22;5809;53.262;10.408;2022-10-16T16:52:14;15.60;99.90
11505;DHT22;5809;53.262;10.408;2022-10-16T16:54:41;15.50;99.90
11505;DHT22;5809;53.262;10.408;2022-10-16T16:57:09;15.50;99.90
11505;DHT22;5809;53.262;10.408;2022-10-16T16:59:36;15.40;99.90
11505;DHT22;5809;53.262;10.408;2022-10-16T17:02:03;15.70;99.90
11505;DHT22;5809;53.262;10.408;2022-10-16T17:04:32;15.30;99.90
11505;DHT22;5809;53.262;10.408;2022-10-16T17:06:58;15.30;99.90
11505;DHT22;5809;53.262;10.408;2022-10-16T17:09:25;15.20;99.90
11505;DHT22;5809;53.262;10.408;2022-10-16T17:11:52;15.20;99.90
11505;DHT22;5809;53.262;10.408;2022-10-16T17:16:46;15.10;99.90
11505;DHT22;5809;53.262;10.408;2022-10-16T17:19:16;15.00;99.90
11505;DHT22;5809;53.262;10.408;2022-10-16T17:21:48;14.90;99.90
11505;DHT22;5809;53.262;10.408;2022-10-16T17:24:15;14.80;99.90
11505;DHT22;5809;53.262;10.408;2022-10-16T17:29:13;14.70;99.90
11505;DHT22;5809;53.262;10.408;2022-10-16T17:31:41;14.70;99.90
11505;DHT22;5809;53.262;10.408;2022-10-16T17:34:08;14.70;99.90
11505;DHT22;5809;53.262;10.408;2022-10-16T17:36:37;14.70;99.90
11505;DHT22;5809;53.262;10.408;2022-10-16T17:39:11;14.60;99.90
11505;DHT22;5809;53.262;10.408;2022-10-16T17:41:38;14.60;99.90
11505;DHT22;5809;53.262;10.408;2022-10-16T17:44:05;14.60;99.90
11505;DHT22;5809;53.262;10.408;2022-10-16T17:46:33;14.60;99.90
11505;DHT22;5809;53.262;10.408;2022-10-16T17:51:29;14.50;99.90
11505;DHT22;5809;53.262;10.408;2022-10-16T17:53:58;14.40;99.90
11505;DHT22;5809;53.262;10.408;2022-10-16T17:56:27;14.40;99.90
11505;DHT22;5809;53.262;10.408;2022-10-16T17:58:56;14.40;99.90
11505;DHT22;5809;53.262;10.408;2022-10-16T18:01:27;14.30;99.90
11505;DHT22;5809;53.262;10.408;2022-10-16T18:03:56;14.20;99.90
11505;DHT22;5809;53.262;10.408;2022-10-16T18:06:24;14.10;99.90
11505;DHT22;5809;53.262;10.408;2022-10-16T18:11:18;13.90;99.90
11505;DHT22;5809;53.262;10.408;2022-10-16T18:13:47;13.80;99.90
11505;DHT22;5809;53.262;10.408;2022-10-16T18:16:14;13.70;99.90
11505;DHT22;5809;53.262;10.408;2022-10-16T18:18:42;13.60;99.90
11505;DHT22;5809;53.262;10.408;2022-10-16T18:21:12;13.50;99.90
11505;DHT22;5809;53.262;10.408;2022-10-16T18:23:39;13.40;99.90
11505;DHT22;5809;53.262;10.408;2022-10-16T18:26:07;13.40;99.90
11505;DHT22;5809;53.262;10.408;2022-10-16T18:31:06;13.30;99.90
11505;DHT22;5809;53.262;10.408;2022-10-16T18:33:34;13.30;99.90
11505;DHT22;5809;53.262;10.408;2022-10-16T18:36:02;13.30;99.90
11505;DHT22;5809;53.262;10.408;2022-10-16T18:38:29;13.20;99.90
11505;DHT22;5809;53.262;10.408;2022-10-16T18:45:57;13.10;99.90
11505;DHT22;5809;53.262;10.408;2022-10-16T18:48:26;13.10;99.90
11505;DHT22;5809;53.262;10.408;2022-10-16T18:51:05;13.00;99.90
11505;DHT22;5809;53.262;10.408;2022-10-16T18:53:32;12.90;99.90
11505;DHT22;5809;53.262;10.408;2022-10-16T18:55:59;12.80;99.90
11505;DHT22;5809;53.262;10.408;2022-10-16T19:03:21;12.50;99.90
11505;DHT22;5809;53.262;10.408;2022-10-16T19:05:49;12.50;99.90
11505;DHT22;5809;53.262;10.408;2022-10-16T19:08:16;12.40;99.90
11505;DHT22;5809;53.262;10.408;2022-10-16T19:13:10;12.40;99.90
11505;DHT22;5809;53.262;10.408;2022-10-16T19:15:40;12.50;99.90
11505;DHT22;5809;53.262;10.408;2022-10-16T19:18:08;12.40;99.90
11505;DHT22;5809;53.262;10.408;2022-10-16T19:23:04;12.50;99.90
11505;DHT22;5809;53.262;10.408;2022-10-16T19:25:35;12.50;99.90
11505;DHT22;5809;53.262;10.408;2022-10-16T19:28:02;12.50;99.90
11505;DHT22;5809;53.262;10.408;2022-10-16T19:30:35;12.50;99.90
11505;DHT22;5809;53.262;10.408;2022-10-16T19:33:02;12.40;99.90
11505;DHT22;5809;53.262;10.408;2022-10-16T19:35:29;12.30;99.90
11505;DHT22;5809;53.262;10.408;2022-10-16T19:40:24;12.30;99.90
11505;DHT22;5809;53.262;10.408;2022-10-16T19:42:51;12.20;99.90
11505;DHT22;5809;53.262;10.408;2022-10-16T19:45:19;12.20;99.90
11505;DHT22;5809;53.262;10.408;2022-10-16T19:47:46;12.20;99.90
11505;DHT22;5809;53.262;10.408;2022-10-16T19:50:13;12.20;99.90
11505;DHT22;5809;53.262;10.408;2022-10-16T19:52:40;12.10;99.90
11505;DHT22;5809;53.262;10.408;2022-10-16T19:55:08;12.00;99.90
11505;DHT22;5809;53.262;10.408;2022-10-16T19:57:36;11.90;99.90
11505;DHT22;5809;53.262;10.408;2022-10-16T20:00:04;11.80;99.90
11505;DHT22;5809;53.262;10.408;2022-10-16T20:02:31;11.80;99.90
11505;DHT22;5809;53.262;10.408;2022-10-16T20:04:58;11.80;99.90
11505;DHT22;5809;53.262;10.408;2022-10-16T20:07:25;11.80;99.90
11505;DHT22;5809;53.262;10.408;2022-10-16T20:09:52;11.90;99.90
11505;DHT22;5809;53.262;10.408;2022-10-16T20:12:19;12.10;99.90
11505;DHT22;5809;53.262;10.408;2022-10-16T20:14:47;12.10;99.90
11505;DHT22;5809;53.262;10.408;2022-10-16T20:17:14;12.00;99.90
11505;DHT22;5809;53.262;10.408;2022-10-16T20:22:08;11.90;99.90
11505;DHT22;5809;53.262;10.408;2022-10-16T20:24:36;11.80;99.90
11505;DHT22;5809;53.262;10.408;2022-10-16T20:27:02;11.70;99.90
11505;DHT22;5809;53.262;10.408;2022-10-16T20:29:30;11.70;99.90
11505;DHT22;5809;53.262;10.408;2022-10-16T20:31:58;11.70;99.90
11505;DHT22;5809;53.262;10.408;2022-10-16T20:36:52;11.90;99.90
11505;DHT22;5809;53.262;10.408;2022-10-16T20:49:09;11.90;99.90
11505;DHT22;5809;53.262;10.408;2022-10-16T21:06:25;11.80;99.90
11505;DHT22;5809;53.262;10.408;2022-10-16T21:13:50;11.80;99.90
11505;DHT22;5809;53.262;10.408;2022-10-16T21:16:17;11.80;99.90
11505;DHT22;5809;53.262;10.408;2022-10-16T21:31:11;11.90;99.90
11505;DHT22;5809;53.262;10.408;2022-10-16T21:48:34;11.70;99.90
11505;DHT22;5809;53.262;10.408;2022-10-16T21:53:28;11.70;99.90
11505;DHT22;5809;53.262;10.408;2022-10-16T22:03:18;11.60;99.90
11505;DHT22;5809;53.262;10.408;2022-10-16T22:05:45;11.60;99.90
11505;DHT22;5809;53.262;10.408;2022-10-16T22:13:08;11.70;99.90
11505;DHT22;5809;53.262;10.408;2022-10-16T22:22:57;11.80;99.90
11505;DHT22;5809;53.262;10.408;2022-10-16T22:32:47;11.90;99.90
11505;DHT22;5809;53.262;10.408;2022-10-16T22:35:14;11.90;99.90
11505;DHT22;5809;53.262;10.408;2022-10-16T22:42:36;12.00;99.90
11505;DHT22;5809;53.262;10.408;2022-10-16T23:04:42;11.90;99.90
11505;DHT22;5809;53.262;10.408;2022-10-16T23:07:11;11.90;99.90
11505;DHT22;5809;53.262;10.408;2022-10-16T23:26:49;12.00;99.90
11505;DHT22;5809;53.262;10.408;2022-10-16T23:36:37;12.10;99.90